sensor_id;sensor_type;location;lat;lon;timestamp;temperature;humidity
59847;DHT22;45728;48.788;2.302;2024-03-25T00:01:14;6.60;99.90
59847;DHT22;45728;48.788;2.302;2024-03-25T00:03:40;6.60;99.90
59847;DHT22;45728;48.788;2.302;2024-03-25T00:06:06;6.70;99.90
59847;DHT22;45728;48.788;2.302;2024-03-25T00:08:32;6.60;99.90
59847;DHT22;45728;48.788;2.302;2024-03-25T00:10:58;6.60;99.90
59847;DHT22;45728;48.788;2.302;2024-03-25T00:13:24;6.50;99.90
59847;DHT22;45728;48.788;2.302;2024-03-25T00:15:50;6.50;99.90
59847;DHT22;45728;48.788;2.302;2024-03-25T00:18:16;6.40;99.90
59847;DHT22;45728;48.788;2.302;2024-03-25T00:20:43;6.30;99.90
59847;DHT22;45728;48.788;2.302;2024-03-25T00:23:09;6.20;99.90
59847;DHT22;45728;48.788;2.302;2024-03-25T00:25:35;6.20;99.90
59847;DHT22;45728;48.788;2.302;2024-03-25T00:28:01;6.20;99.90
59847;DHT22;45728;48.788;2.302;2024-03-25T00:30:28;6.20;99.90
59847;DHT22;45728;48.788;2.302;2024-03-25T00:32:54;6.20;99.90
59847;DHT22;45728;48.788;2.302;2024-03-25T00:35:20;6.10;99.90
59847;DHT22;45728;48.788;2.302;2024-03-25T00:37:46;6.00;99.90
59847;DHT22;45728;48.788;2.302;2024-03-25T00:40:13;6.10;99.90
59847;DHT22;45728;48.788;2.302;2024-03-25T00:42:39;6.00;99.90
59847;DHT22;45728;48.788;2.302;2024-03-25T00:45:05;6.00;99.90
59847;DHT22;45728;48.788;2.302;2024-03-25T00:47:32;5.90;99.90
59847;DHT22;45728;48.788;2.302;2024-03-25T00:49:58;5.80;99.90
59847;DHT22;45728;48.788;2.302;2024-03-25T00:52:24;5.80;99.90
59847;DHT22;45728;48.788;2.302;2024-03-25T00:54:50;5.90;99.90
59847;DHT22;45728;48.788;2.302;2024-03-25T00:57:16;5.90;99.90
59847;DHT22;45728;48.788;2.302;2024-03-25T00:59:44;5.80;99.90
59847;DHT22;45728;48.788;2.302;2024-03-25T01:02:10;5.70;99.90
59847;DHT22;45728;48.788;2.302;2024-03-25T01:04:36;5.70;99.90
59847;DHT22;45728;48.788;2.302;2024-03-25T01:07:02;5.70;99.90
59847;DHT22;45728;48.788;2.302;2024-03-25T01:09:29;5.70;99.90
59847;DHT22;45728;48.788;2.302;2024-03-25T01:11:55;5.60;99.90
59847;DHT22;45728;48.788;2.302;2024-03-25T01:14:21;5.60;99.90
59847;DHT22;45728;48.788;2.302;2024-03-25T01:16:47;5.60;99.90
59847;DHT22;45728;48.788;2.302;2024-03-25T01:19:13;5.50;99.90
59847;DHT22;45728;48.788;2.302;2024-03-25T01:21:39;5.50;99.90
59847;DHT22;45728;48.788;2.302;2024-03-25T01:24:06;5.50;99.90
59847;DHT22;45728;48.788;2.302;2024-03-25T01:26:32;5.60;99.90
59847;DHT22;45728;48.788;2.302;2024-03-25T01:28:58;5.50;99.90
59847;DHT22;45728;48.788;2.302;2024-03-25T01:31:24;5.50;99.90
59847;DHT22;45728;48.788;2.302;2024-03-25T01:33:50;5.40;99.90
59847;DHT22;45728;48.788;2.302;2024-03-25T01:36:16;5.40;99.90
59847;DHT22;45728;48.788;2.302;2024-03-25T01:38:44;5.40;99.90
59847;DHT22;45728;48.788;2.302;2024-03-25T01:41:11;5.30;99.90
59847;DHT22;45728;48.788;2.302;2024-03-25T01:43:38;5.30;99.90
59847;DHT22;45728;48.788;2.302;2024-03-25T01:46:05;5.30;99.90
59847;DHT22;45728;48.788;2.302;2024-03-25T01:48:31;5.20;99.90
59847;DHT22;45728;48.788;2.302;2024-03-25T01:50:58;5.20;99.90
59847;DHT22;45728;48.788;2.302;2024-03-25T01:53:30;5.20;99.90
59847;DHT22;45728;48.788;2.302;2024-03-25T01:55:56;5.30;99.90
59847;DHT22;45728;48.788;2.302;2024-03-25T01:58:25;5.20;99.90
59847;DHT22;45728;48.788;2.302;2024-03-25T02:00:53;5.20;99.90
59847;DHT22;45728;48.788;2.302;2024-03-25T02:03:20;5.20;99.90
59847;DHT22;45728;48.788;2.302;2024-03-25T02:05:50;5.20;99.90
59847;DHT22;45728;48.788;2.302;2024-03-25T02:08:19;5.20;99.90
59847;DHT22;45728;48.788;2.302;2024-03-25T02:10:45;5.20;99.90
59847;DHT22;45728;48.788;2.302;2024-03-25T02:13:12;5.20;99.90
59847;DHT22;45728;48.788;2.302;2024-03-25T02:15:38;5.20;99.90
59847;DHT22;45728;48.788;2.302;2024-03-25T02:18:06;5.20;99.90
59847;DHT22;45728;48.788;2.302;2024-03-25T02:20:33;5.10;99.90
59847;DHT22;45728;48.788;2.302;2024-03-25T02:22:59;5.00;99.90
59847;DHT22;45728;48.788;2.302;2024-03-25T02:25:25;5.00;99.90
59847;DHT22;45728;48.788;2.302;2024-03-25T02:27:51;5.00;99.90
59847;DHT22;45728;48.788;2.302;2024-03-25T02:30:17;5.00;99.90
59847;DHT22;45728;48.788;2.302;2024-03-25T02:32:43;5.00;99.90
59847;DHT22;45728;48.788;2.302;2024-03-25T02:35:13;5.00;99.90
59847;DHT22;45728;48.788;2.302;2024-03-25T02:37:41;5.00;99.90
59847;DHT22;45728;48.788;2.302;2024-03-25T02:40:08;5.00;99.90
59847;DHT22;45728;48.788;2.302;2024-03-25T02:42:38;5.00;99.90
59847;DHT22;45728;48.788;2.302;2024-03-25T02:45:06;4.90;99.90
59847;DHT22;45728;48.788;2.302;2024-03-25T02:47:32;4.90;99.90
59847;DHT22;45728;48.788;2.302;2024-03-25T02:49:58;4.90;99.90
59847;DHT22;45728;48.788;2.302;2024-03-25T02:52:24;4.90;99.90
59847;DHT22;45728;48.788;2.302;2024-03-25T02:54:50;5.00;99.90
59847;DHT22;45728;48.788;2.302;2024-03-25T02:57:17;5.00;99.90
59847;DHT22;45728;48.788;2.302;2024-03-25T02:59:43;5.00;99.90
59847;DHT22;45728;48.788;2.302;2024-03-25T03:02:09;4.90;99.90
59847;DHT22;45728;48.788;2.302;2024-03-25T03:04:35;5.00;99.90
59847;DHT22;45728;48.788;2.302;2024-03-25T03:07:01;5.00;99.90
59847;DHT22;45728;48.788;2.302;2024-03-25T03:09:27;5.00;99.90
59847;DHT22;45728;48.788;2.302;2024-03-25T03:11:53;5.00;99.90
59847;DHT22;45728;48.788;2.302;2024-03-25T03:14:19;4.90;99.90
59847;DHT22;45728;48.788;2.302;2024-03-25T03:16:45;4.80;99.90
59847;DHT22;45728;48.788;2.302;2024-03-25T03:19:11;4.90;99.90
59847;DHT22;45728;48.788;2.302;2024-03-25T03:21:37;4.90;99.90
59847;DHT22;45728;48.788;2.302;2024-03-25T03:24:05;4.90;99.90
59847;DHT22;45728;48.788;2.302;2024-03-25T03:26:31;4.90;99.90
59847;DHT22;45728;48.788;2.302;2024-03-25T03:28:57;5.00;99.90
59847;DHT22;45728;48.788;2.302;2024-03-25T03:31:24;5.10;99.90
59847;DHT22;45728;48.788;2.302;2024-03-25T03:33:51;5.10;99.90
59847;DHT22;45728;48.788;2.302;2024-03-25T03:36:22;5.20;99.90
59847;DHT22;45728;48.788;2.302;2024-03-25T03:38:51;5.20;99.90
59847;DHT22;45728;48.788;2.302;2024-03-25T03:41:17;5.20;99.90
59847;DHT22;45728;48.788;2.302;2024-03-25T03:43:44;5.20;99.90
59847;DHT22;45728;48.788;2.302;2024-03-25T03:46:10;5.20;99.90
59847;DHT22;45728;48.788;2.302;2024-03-25T03:48:36;5.20;99.90
59847;DHT22;45728;48.788;2.302;2024-03-25T03:51:07;5.10;99.90
59847;DHT22;45728;48.788;2.302;2024-03-25T03:53:34;5.10;99.90
59847;DHT22;45728;48.788;2.302;2024-03-25T03:56:04;5.10;99.90
59847;DHT22;45728;48.788;2.302;2024-03-25T03:58:33;5.10;99.90
59847;DHT22;45728;48.788;2.302;2024-03-25T04:01:00;5.00;99.90
59847;DHT22;45728;48.788;2.302;2024-03-25T04:03:26;5.00;99.90
59847;DHT22;45728;48.788;2.302;2024-03-25T04:05:53;5.00;99.90
59847;DHT22;45728;48.788;2.302;2024-03-25T04:08:19;4.90;99.90
59847;DHT22;45728;48.788;2.302;2024-03-25T04:10:45;4.90;99.90
59847;DHT22;45728;48.788;2.302;2024-03-25T04:13:11;4.90;99.90
59847;DHT22;45728;48.788;2.302;2024-03-25T04:15:39;4.90;99.90
59847;DHT22;45728;48.788;2.302;2024-03-25T04:18:06;4.80;99.90
59847;DHT22;45728;48.788;2.302;2024-03-25T04:20:37;4.80;99.90
59847;DHT22;45728;48.788;2.302;2024-03-25T04:23:03;4.80;99.90
59847;DHT22;45728;48.788;2.302;2024-03-25T04:25:30;4.70;99.90
59847;DHT22;45728;48.788;2.302;2024-03-25T04:27:57;4.70;99.90
59847;DHT22;45728;48.788;2.302;2024-03-25T04:30:23;4.80;99.90
59847;DHT22;45728;48.788;2.302;2024-03-25T04:32:49;4.80;99.90
59847;DHT22;45728;48.788;2.302;2024-03-25T04:35:15;4.80;99.90
59847;DHT22;45728;48.788;2.302;2024-03-25T04:37:41;4.80;99.90
59847;DHT22;45728;48.788;2.302;2024-03-25T04:40:08;4.70;99.90
59847;DHT22;45728;48.788;2.302;2024-03-25T04:42:34;4.60;99.90
59847;DHT22;45728;48.788;2.302;2024-03-25T04:45:00;4.50;99.90
59847;DHT22;45728;48.788;2.302;2024-03-25T04:47:26;4.50;99.90
59847;DHT22;45728;48.788;2.302;2024-03-25T04:49:52;4.50;99.90
59847;DHT22;45728;48.788;2.302;2024-03-25T04:52:18;4.50;99.90
59847;DHT22;45728;48.788;2.302;2024-03-25T04:54:49;4.50;99.90
59847;DHT22;45728;48.788;2.302;2024-03-25T04:57:15;4.50;99.90
59847;DHT22;45728;48.788;2.302;2024-03-25T04:59:41;4.50;99.90
59847;DHT22;45728;48.788;2.302;2024-03-25T05:02:07;4.50;99.90
59847;DHT22;45728;48.788;2.302;2024-03-25T05:04:34;4.50;99.90
59847;DHT22;45728;48.788;2.302;2024-03-25T05:07:00;4.50;99.90
59847;DHT22;45728;48.788;2.302;2024-03-25T05:09:26;4.40;99.90
59847;DHT22;45728;48.788;2.302;2024-03-25T05:11:52;4.50;99.90
59847;DHT22;45728;48.788;2.302;2024-03-25T05:14:18;4.50;99.90
59847;DHT22;45728;48.788;2.302;2024-03-25T05:16:44;4.50;99.90
59847;DHT22;45728;48.788;2.302;2024-03-25T05:19:10;4.60;99.90
59847;DHT22;45728;48.788;2.302;2024-03-25T05:21:36;4.50;99.90
59847;DHT22;45728;48.788;2.302;2024-03-25T05:24:02;4.50;99.90
59847;DHT22;45728;48.788;2.302;2024-03-25T05:26:29;4.50;99.90
59847;DHT22;45728;48.788;2.302;2024-03-25T05:28:55;4.50;99.90
59847;DHT22;45728;48.788;2.302;2024-03-25T05:31:22;4.50;99.90
59847;DHT22;45728;48.788;2.302;2024-03-25T05:33:49;4.50;99.90
59847;DHT22;45728;48.788;2.302;2024-03-25T05:36:15;4.50;99.90
59847;DHT22;45728;48.788;2.302;2024-03-25T05:38:41;4.50;99.90
59847;DHT22;45728;48.788;2.302;2024-03-25T05:41:10;4.50;99.90
59847;DHT22;45728;48.788;2.302;2024-03-25T05:43:37;4.50;99.90
59847;DHT22;45728;48.788;2.302;2024-03-25T05:46:04;4.50;99.90
59847;DHT22;45728;48.788;2.302;2024-03-25T05:48:30;4.50;99.90
59847;DHT22;45728;48.788;2.302;2024-03-25T05:51:06;4.50;99.90
59847;DHT22;45728;48.788;2.302;2024-03-25T05:53:35;4.50;99.90
59847;DHT22;45728;48.788;2.302;2024-03-25T05:56:01;4.50;99.90
59847;DHT22;45728;48.788;2.302;2024-03-25T05:58:28;4.50;99.90
59847;DHT22;45728;48.788;2.302;2024-03-25T06:00:54;4.50;99.90
59847;DHT22;45728;48.788;2.302;2024-03-25T06:03:20;4.60;99.90
59847;DHT22;45728;48.788;2.302;2024-03-25T06:05:46;4.70;99.90
59847;DHT22;45728;48.788;2.302;2024-03-25T06:08:13;4.70;99.90
59847;DHT22;45728;48.788;2.302;2024-03-25T06:10:46;4.70;99.90
59847;DHT22;45728;48.788;2.302;2024-03-25T06:13:12;4.70;99.90
59847;DHT22;45728;48.788;2.302;2024-03-25T06:15:38;4.70;99.90
59847;DHT22;45728;48.788;2.302;2024-03-25T06:18:04;4.70;99.90
59847;DHT22;45728;48.788;2.302;2024-03-25T06:20:30;4.70;99.90
59847;DHT22;45728;48.788;2.302;2024-03-25T06:22:56;4.70;99.90
59847;DHT22;45728;48.788;2.302;2024-03-25T06:25:22;4.80;99.90
59847;DHT22;45728;48.788;2.302;2024-03-25T06:27:48;4.80;99.90
59847;DHT22;45728;48.788;2.302;2024-03-25T06:30:14;4.90;99.90
59847;DHT22;45728;48.788;2.302;2024-03-25T06:32:59;5.00;99.90
59847;DHT22;45728;48.788;2.302;2024-03-25T06:35:44;5.10;99.90
59847;DHT22;45728;48.788;2.302;2024-03-25T06:38:10;5.00;99.90
59847;DHT22;45728;48.788;2.302;2024-03-25T06:40:38;5.00;99.90
59847;DHT22;45728;48.788;2.302;2024-03-25T06:43:04;5.10;99.90
59847;DHT22;45728;48.788;2.302;2024-03-25T06:45:31;5.10;99.90
59847;DHT22;45728;48.788;2.302;2024-03-25T06:47:57;5.10;99.90
59847;DHT22;45728;48.788;2.302;2024-03-25T06:50:24;5.10;99.90
59847;DHT22;45728;48.788;2.302;2024-03-25T06:52:50;5.20;99.90
59847;DHT22;45728;48.788;2.302;2024-03-25T06:55:16;5.30;99.90
59847;DHT22;45728;48.788;2.302;2024-03-25T06:58:03;5.20;99.90
59847;DHT22;45728;48.788;2.302;2024-03-25T07:00:29;5.30;99.90
59847;DHT22;45728;48.788;2.302;2024-03-25T07:02:56;5.30;99.90
59847;DHT22;45728;48.788;2.302;2024-03-25T07:05:22;5.30;99.90
59847;DHT22;45728;48.788;2.302;2024-03-25T07:07:48;5.40;99.90
59847;DHT22;45728;48.788;2.302;2024-03-25T07:10:14;5.40;99.90
59847;DHT22;45728;48.788;2.302;2024-03-25T07:12:40;5.50;99.90
59847;DHT22;45728;48.788;2.302;2024-03-25T07:15:06;5.50;99.90
59847;DHT22;45728;48.788;2.302;2024-03-25T07:17:32;5.50;99.90
59847;DHT22;45728;48.788;2.302;2024-03-25T07:19:58;5.60;99.90
59847;DHT22;45728;48.788;2.302;2024-03-25T07:22:24;5.60;99.90
59847;DHT22;45728;48.788;2.302;2024-03-25T07:24:50;5.70;99.90
59847;DHT22;45728;48.788;2.302;2024-03-25T07:27:21;5.80;99.90
59847;DHT22;45728;48.788;2.302;2024-03-25T07:29:47;5.90;99.90
59847;DHT22;45728;48.788;2.302;2024-03-25T07:32:13;5.90;99.90
59847;DHT22;45728;48.788;2.302;2024-03-25T07:34:39;6.00;99.90
59847;DHT22;45728;48.788;2.302;2024-03-25T07:37:05;6.10;99.90
59847;DHT22;45728;48.788;2.302;2024-03-25T07:39:31;6.10;99.90
59847;DHT22;45728;48.788;2.302;2024-03-25T07:41:57;6.20;99.90
59847;DHT22;45728;48.788;2.302;2024-03-25T07:44:25;6.30;99.90
59847;DHT22;45728;48.788;2.302;2024-03-25T07:46:51;6.40;99.90
59847;DHT22;45728;48.788;2.302;2024-03-25T07:49:17;6.40;99.90
59847;DHT22;45728;48.788;2.302;2024-03-25T07:51:43;6.50;99.90
59847;DHT22;45728;48.788;2.302;2024-03-25T07:54:09;6.50;99.90
59847;DHT22;45728;48.788;2.302;2024-03-25T07:56:38;6.60;99.90
59847;DHT22;45728;48.788;2.302;2024-03-25T07:59:04;6.70;99.90
59847;DHT22;45728;48.788;2.302;2024-03-25T08:01:30;6.70;99.90
59847;DHT22;45728;48.788;2.302;2024-03-25T08:03:56;6.80;99.90
59847;DHT22;45728;48.788;2.302;2024-03-25T08:06:22;6.90;99.90
59847;DHT22;45728;48.788;2.302;2024-03-25T08:08:48;6.90;99.90
59847;DHT22;45728;48.788;2.302;2024-03-25T08:11:14;6.90;99.90
59847;DHT22;45728;48.788;2.302;2024-03-25T08:13:40;7.00;99.90
59847;DHT22;45728;48.788;2.302;2024-03-25T08:16:06;7.00;99.90
59847;DHT22;45728;48.788;2.302;2024-03-25T08:18:33;7.10;99.90
59847;DHT22;45728;48.788;2.302;2024-03-25T08:21:00;7.20;99.90
59847;DHT22;45728;48.788;2.302;2024-03-25T08:23:26;7.20;99.90
59847;DHT22;45728;48.788;2.302;2024-03-25T08:25:52;7.30;99.90
59847;DHT22;45728;48.788;2.302;2024-03-25T08:28:18;7.30;99.90
59847;DHT22;45728;48.788;2.302;2024-03-25T08:30:44;7.40;99.90
59847;DHT22;45728;48.788;2.302;2024-03-25T08:33:10;7.50;99.90
59847;DHT22;45728;48.788;2.302;2024-03-25T08:35:37;7.60;99.90
59847;DHT22;45728;48.788;2.302;2024-03-25T08:38:04;7.70;99.90
59847;DHT22;45728;48.788;2.302;2024-03-25T08:40:30;7.80;99.90
59847;DHT22;45728;48.788;2.302;2024-03-25T08:42:56;7.90;99.90
59847;DHT22;45728;48.788;2.302;2024-03-25T08:45:40;8.00;99.90
59847;DHT22;45728;48.788;2.302;2024-03-25T08:48:06;8.10;99.90
59847;DHT22;45728;48.788;2.302;2024-03-25T08:50:33;8.10;99.90
59847;DHT22;45728;48.788;2.302;2024-03-25T08:52:59;8.30;99.90
59847;DHT22;45728;48.788;2.302;2024-03-25T08:55:25;8.40;99.90
59847;DHT22;45728;48.788;2.302;2024-03-25T08:57:51;8.50;99.90
59847;DHT22;45728;48.788;2.302;2024-03-25T09:00:18;8.60;99.90
59847;DHT22;45728;48.788;2.302;2024-03-25T09:02:44;8.70;99.90
59847;DHT22;45728;48.788;2.302;2024-03-25T09:05:10;8.80;99.90
59847;DHT22;45728;48.788;2.302;2024-03-25T09:07:36;8.80;99.90
59847;DHT22;45728;48.788;2.302;2024-03-25T09:10:03;9.00;99.90
59847;DHT22;45728;48.788;2.302;2024-03-25T09:12:47;9.20;99.90
59847;DHT22;45728;48.788;2.302;2024-03-25T09:15:13;9.40;99.90
59847;DHT22;45728;48.788;2.302;2024-03-25T09:17:40;9.40;99.90
59847;DHT22;45728;48.788;2.302;2024-03-25T09:20:07;9.60;99.90
59847;DHT22;45728;48.788;2.302;2024-03-25T09:22:45;9.70;99.90
59847;DHT22;45728;48.788;2.302;2024-03-25T09:25:11;9.90;99.90
59847;DHT22;45728;48.788;2.302;2024-03-25T09:27:37;10.00;99.90
59847;DHT22;45728;48.788;2.302;2024-03-25T09:30:03;10.30;99.90
59847;DHT22;45728;48.788;2.302;2024-03-25T09:32:30;10.40;99.90
59847;DHT22;45728;48.788;2.302;2024-03-25T09:34:59;10.60;99.90
59847;DHT22;45728;48.788;2.302;2024-03-25T09:37:25;10.90;99.90
59847;DHT22;45728;48.788;2.302;2024-03-25T09:39:51;11.20;99.90
59847;DHT22;45728;48.788;2.302;2024-03-25T09:42:26;11.40;99.90
59847;DHT22;45728;48.788;2.302;2024-03-25T09:44:56;11.60;99.90
59847;DHT22;45728;48.788;2.302;2024-03-25T09:47:23;11.90;99.90
59847;DHT22;45728;48.788;2.302;2024-03-25T09:49:49;12.00;99.90
59847;DHT22;45728;48.788;2.302;2024-03-25T09:52:16;12.10;99.90
59847;DHT22;45728;48.788;2.302;2024-03-25T09:54:42;12.30;99.90
59847;DHT22;45728;48.788;2.302;2024-03-25T09:57:08;12.40;99.90
59847;DHT22;45728;48.788;2.302;2024-03-25T09:59:35;12.50;99.90
59847;DHT22;45728;48.788;2.302;2024-03-25T10:02:01;12.40;99.90
59847;DHT22;45728;48.788;2.302;2024-03-25T10:04:29;12.30;99.90
59847;DHT22;45728;48.788;2.302;2024-03-25T10:06:55;12.50;99.90
59847;DHT22;45728;48.788;2.302;2024-03-25T10:09:22;12.80;99.90
59847;DHT22;45728;48.788;2.302;2024-03-25T10:11:49;13.20;99.90
59847;DHT22;45728;48.788;2.302;2024-03-25T10:14:18;13.20;99.90
59847;DHT22;45728;48.788;2.302;2024-03-25T10:16:45;13.40;99.90
59847;DHT22;45728;48.788;2.302;2024-03-25T10:19:11;13.50;99.90
59847;DHT22;45728;48.788;2.302;2024-03-25T10:21:37;13.50;99.90
59847;DHT22;45728;48.788;2.302;2024-03-25T10:24:06;13.60;99.90
59847;DHT22;45728;48.788;2.302;2024-03-25T10:26:33;13.60;99.90
59847;DHT22;45728;48.788;2.302;2024-03-25T10:29:02;13.80;99.90
59847;DHT22;45728;48.788;2.302;2024-03-25T10:31:30;13.90;99.90
59847;DHT22;45728;48.788;2.302;2024-03-25T10:33:56;14.10;99.90
59847;DHT22;45728;48.788;2.302;2024-03-25T10:36:23;14.00;99.90
59847;DHT22;45728;48.788;2.302;2024-03-25T10:38:56;13.90;99.90
59847;DHT22;45728;48.788;2.302;2024-03-25T10:41:22;13.90;99.90
59847;DHT22;45728;48.788;2.302;2024-03-25T10:43:49;14.10;99.90
59847;DHT22;45728;48.788;2.302;2024-03-25T10:46:18;14.00;99.90
59847;DHT22;45728;48.788;2.302;2024-03-25T10:49:01;13.90;99.90
59847;DHT22;45728;48.788;2.302;2024-03-25T10:51:29;13.70;99.90
59847;DHT22;45728;48.788;2.302;2024-03-25T10:53:57;13.90;99.90
59847;DHT22;45728;48.788;2.302;2024-03-25T10:56:24;14.00;99.90
59847;DHT22;45728;48.788;2.302;2024-03-25T10:58:52;14.10;99.90
59847;DHT22;45728;48.788;2.302;2024-03-25T11:01:19;14.30;99.90
59847;DHT22;45728;48.788;2.302;2024-03-25T11:03:46;14.30;99.90
59847;DHT22;45728;48.788;2.302;2024-03-25T11:06:14;14.60;99.90
59847;DHT22;45728;48.788;2.302;2024-03-25T11:08:41;14.70;99.90
59847;DHT22;45728;48.788;2.302;2024-03-25T11:11:08;14.80;99.90
59847;DHT22;45728;48.788;2.302;2024-03-25T11:13:34;14.70;99.90
59847;DHT22;45728;48.788;2.302;2024-03-25T11:16:00;14.60;99.90
59847;DHT22;45728;48.788;2.302;2024-03-25T11:18:27;14.70;99.90
59847;DHT22;45728;48.788;2.302;2024-03-25T11:21:02;14.70;99.90
59847;DHT22;45728;48.788;2.302;2024-03-25T11:23:45;14.80;99.90
59847;DHT22;45728;48.788;2.302;2024-03-25T11:26:21;14.80;99.90
59847;DHT22;45728;48.788;2.302;2024-03-25T11:28:48;14.70;99.90
59847;DHT22;45728;48.788;2.302;2024-03-25T11:31:15;14.00;99.90
59847;DHT22;45728;48.788;2.302;2024-03-25T11:33:42;14.30;99.90
59847;DHT22;45728;48.788;2.302;2024-03-25T11:36:09;14.60;99.90
59847;DHT22;45728;48.788;2.302;2024-03-25T11:38:36;14.90;99.90
59847;DHT22;45728;48.788;2.302;2024-03-25T11:41:04;15.20;99.90
59847;DHT22;45728;48.788;2.302;2024-03-25T11:43:31;14.80;99.90
59847;DHT22;45728;48.788;2.302;2024-03-25T11:45:58;14.90;99.90
59847;DHT22;45728;48.788;2.302;2024-03-25T11:48:24;14.90;99.90
59847;DHT22;45728;48.788;2.302;2024-03-25T11:50:51;15.00;99.90
59847;DHT22;45728;48.788;2.302;2024-03-25T11:53:17;15.00;99.90
59847;DHT22;45728;48.788;2.302;2024-03-25T11:55:47;14.50;99.90
59847;DHT22;45728;48.788;2.302;2024-03-25T11:58:14;14.60;99.90
59847;DHT22;45728;48.788;2.302;2024-03-25T12:00:47;14.80;99.90
59847;DHT22;45728;48.788;2.302;2024-03-25T12:03:17;15.20;99.90
59847;DHT22;45728;48.788;2.302;2024-03-25T12:05:46;15.50;99.90
59847;DHT22;45728;48.788;2.302;2024-03-25T12:08:12;15.40;99.90
59847;DHT22;45728;48.788;2.302;2024-03-25T12:10:39;15.30;99.90
59847;DHT22;45728;48.788;2.302;2024-03-25T12:13:25;15.30;98.90
59847;DHT22;45728;48.788;2.302;2024-03-25T12:15:52;15.10;99.60
59847;DHT22;45728;48.788;2.302;2024-03-25T12:18:18;15.10;99.90
59847;DHT22;45728;48.788;2.302;2024-03-25T12:20:48;14.80;99.90
59847;DHT22;45728;48.788;2.302;2024-03-25T12:23:14;14.50;99.90
59847;DHT22;45728;48.788;2.302;2024-03-25T12:25:41;14.10;99.90
59847;DHT22;45728;48.788;2.302;2024-03-25T12:28:13;14.50;99.90
59847;DHT22;45728;48.788;2.302;2024-03-25T12:30:55;14.90;99.90
59847;DHT22;45728;48.788;2.302;2024-03-25T12:33:22;15.10;99.90
59847;DHT22;45728;48.788;2.302;2024-03-25T12:35:50;15.50;99.90
59847;DHT22;45728;48.788;2.302;2024-03-25T12:38:30;15.60;99.40
59847;DHT22;45728;48.788;2.302;2024-03-25T12:41:11;14.70;99.80
59847;DHT22;45728;48.788;2.302;2024-03-25T12:43:44;14.90;99.90
59847;DHT22;45728;48.788;2.302;2024-03-25T12:46:11;15.20;99.80
59847;DHT22;45728;48.788;2.302;2024-03-25T12:48:38;15.10;98.60
59847;DHT22;45728;48.788;2.302;2024-03-25T12:51:04;15.00;99.30
59847;DHT22;45728;48.788;2.302;2024-03-25T12:53:30;15.40;99.50
59847;DHT22;45728;48.788;2.302;2024-03-25T12:55:57;15.60;98.90
59847;DHT22;45728;48.788;2.302;2024-03-25T12:58:23;15.50;97.90
59847;DHT22;45728;48.788;2.302;2024-03-25T13:00:49;15.70;97.80
59847;DHT22;45728;48.788;2.302;2024-03-25T13:03:15;15.40;97.40
59847;DHT22;45728;48.788;2.302;2024-03-25T13:05:43;15.70;98.10
59847;DHT22;45728;48.788;2.302;2024-03-25T13:08:09;15.80;97.30
59847;DHT22;45728;48.788;2.302;2024-03-25T13:10:36;15.60;98.10
59847;DHT22;45728;48.788;2.302;2024-03-25T13:13:02;15.80;97.60
59847;DHT22;45728;48.788;2.302;2024-03-25T13:15:28;15.90;96.90
59847;DHT22;45728;48.788;2.302;2024-03-25T13:17:54;15.80;97.50
59847;DHT22;45728;48.788;2.302;2024-03-25T13:20:20;15.80;97.20
59847;DHT22;45728;48.788;2.302;2024-03-25T13:22:48;15.70;97.80
59847;DHT22;45728;48.788;2.302;2024-03-25T13:25:14;15.90;98.20
59847;DHT22;45728;48.788;2.302;2024-03-25T13:27:40;15.80;98.00
59847;DHT22;45728;48.788;2.302;2024-03-25T13:30:07;15.00;98.00
59847;DHT22;45728;48.788;2.302;2024-03-25T13:32:33;15.30;98.60
59847;DHT22;45728;48.788;2.302;2024-03-25T13:34:59;15.50;98.10
59847;DHT22;45728;48.788;2.302;2024-03-25T13:37:25;15.50;98.60
59847;DHT22;45728;48.788;2.302;2024-03-25T13:39:51;15.70;98.10
59847;DHT22;45728;48.788;2.302;2024-03-25T13:42:18;15.90;97.50
59847;DHT22;45728;48.788;2.302;2024-03-25T13:44:44;15.80;98.20
59847;DHT22;45728;48.788;2.302;2024-03-25T13:47:11;15.70;97.30
59847;DHT22;45728;48.788;2.302;2024-03-25T13:49:37;15.10;98.10
59847;DHT22;45728;48.788;2.302;2024-03-25T13:52:04;14.70;98.10
59847;DHT22;45728;48.788;2.302;2024-03-25T13:54:30;14.80;98.90
59847;DHT22;45728;48.788;2.302;2024-03-25T13:56:57;15.00;98.50
59847;DHT22;45728;48.788;2.302;2024-03-25T13:59:23;15.10;98.40
59847;DHT22;45728;48.788;2.302;2024-03-25T14:01:49;15.20;98.20
59847;DHT22;45728;48.788;2.302;2024-03-25T14:04:17;14.60;97.70
59847;DHT22;45728;48.788;2.302;2024-03-25T14:06:44;14.40;98.00
59847;DHT22;45728;48.788;2.302;2024-03-25T14:09:24;14.40;98.40
59847;DHT22;45728;48.788;2.302;2024-03-25T14:11:50;14.40;98.30
59847;DHT22;45728;48.788;2.302;2024-03-25T14:14:16;14.20;98.30
59847;DHT22;45728;48.788;2.302;2024-03-25T14:16:43;14.20;98.50
59847;DHT22;45728;48.788;2.302;2024-03-25T14:19:09;14.10;98.20
59847;DHT22;45728;48.788;2.302;2024-03-25T14:21:35;13.80;98.80
59847;DHT22;45728;48.788;2.302;2024-03-25T14:24:01;13.80;99.40
59847;DHT22;45728;48.788;2.302;2024-03-25T14:26:28;14.00;99.00
59847;DHT22;45728;48.788;2.302;2024-03-25T14:28:54;14.10;99.00
59847;DHT22;45728;48.788;2.302;2024-03-25T14:31:20;14.10;98.80
59847;DHT22;45728;48.788;2.302;2024-03-25T14:33:46;14.00;98.70
59847;DHT22;45728;48.788;2.302;2024-03-25T14:36:12;13.80;99.20
59847;DHT22;45728;48.788;2.302;2024-03-25T14:38:38;13.80;99.20
59847;DHT22;45728;48.788;2.302;2024-03-25T14:41:05;13.70;99.20
59847;DHT22;45728;48.788;2.302;2024-03-25T14:43:31;13.70;99.70
59847;DHT22;45728;48.788;2.302;2024-03-25T14:45:57;13.70;99.70
59847;DHT22;45728;48.788;2.302;2024-03-25T14:48:24;13.80;99.70
59847;DHT22;45728;48.788;2.302;2024-03-25T14:50:50;13.70;99.70
59847;DHT22;45728;48.788;2.302;2024-03-25T14:53:16;13.50;99.60
59847;DHT22;45728;48.788;2.302;2024-03-25T14:55:42;13.40;99.80
59847;DHT22;45728;48.788;2.302;2024-03-25T14:58:08;13.50;99.60
59847;DHT22;45728;48.788;2.302;2024-03-25T15:00:34;13.50;99.70
59847;DHT22;45728;48.788;2.302;2024-03-25T15:03:01;13.60;99.30
59847;DHT22;45728;48.788;2.302;2024-03-25T15:05:27;13.60;99.20
59847;DHT22;45728;48.788;2.302;2024-03-25T15:07:53;13.50;99.10
59847;DHT22;45728;48.788;2.302;2024-03-25T15:10:19;13.60;99.40
59847;DHT22;45728;48.788;2.302;2024-03-25T15:12:48;13.60;99.30
59847;DHT22;45728;48.788;2.302;2024-03-25T15:15:14;13.60;99.20
59847;DHT22;45728;48.788;2.302;2024-03-25T15:17:41;13.60;98.80
59847;DHT22;45728;48.788;2.302;2024-03-25T15:20:07;13.70;99.10
59847;DHT22;45728;48.788;2.302;2024-03-25T15:22:34;13.70;99.10
59847;DHT22;45728;48.788;2.302;2024-03-25T15:25:00;13.50;99.30
59847;DHT22;45728;48.788;2.302;2024-03-25T15:27:27;13.70;99.60
59847;DHT22;45728;48.788;2.302;2024-03-25T15:29:53;13.60;99.80
59847;DHT22;45728;48.788;2.302;2024-03-25T15:32:19;13.80;99.50
59847;DHT22;45728;48.788;2.302;2024-03-25T15:34:46;13.90;99.10
59847;DHT22;45728;48.788;2.302;2024-03-25T15:37:12;13.60;99.40
59847;DHT22;45728;48.788;2.302;2024-03-25T15:39:38;13.70;99.50